Archival Weather

Chicago O'Hare International

Chicago, Illinois (KORD)

Report from: Thursday, November 24, 2022 12:51 PM CST
Current time: Sunday, December 4, 2022 4:53 AM CST

Current weather
Weather history
Weather forecast

Temperature11.7°C (53.1°F)
Dew point5.0°C (41.0°F)
Winds 12 kts (6.2 m/s, 13.8 mph) Southwest (230°)
Visibility10 mi. (16.1 km)
Clouds Few clouds 1,700 ft. (518 m)
Ceiling: Broken clouds 3,900 ft. (1,189 m)
Broken clouds 6,000 ft. (1,829 m)
Broken clouds 25,000 ft. (7,620 m)
Altimeter30.05 in.Hg (1018 mB)
Relative humidity63 %
Density altitude-413 ft. (-126 m)
Sea-level pressure101.8 kPa (1018 mB, 30.06 in.Hg)
Remarks System requires maintenance
Automated weather observing station with precipitation discriminator
Flight conditions Visual Meteorological Conditions
Raw dataKORD 241851Z 23012KT 10SM FEW017 BKN039 BKN060 BKN250 12/05 A3005 RMK AO2 SLP179 T01170050 $
An error has occurred. This application may no longer respond until reloaded. Reload 🗙